Mc Connell Air Force Base
KIAB : now visible

Airfield :











YOU CAN JOIN US ON...

 
LOGIN :

Register | Disclaimer

   EN    FR    IT 

 









Legend :    VFR   Marginal VFR   IFR   Intensive IFR   Very Intensive IFR
Visi :
Ceiling :
>= 8 km
>= 3000ft
5 to 8 km
1000 to 3000 ft
1500m to 5 km
500 to 1000 ft
800 to 1500m
200 to 500 ft
< 800m
< 200 ft
Symbols :   Thunderstorms  Fog  Heavy snow  Heavy precipitations  Wind > 20 kt






- Airport Elevation : 1371 ft
- IATA code : IAB


KIAB - Mc Connell Air Force Base

CURRENT METAR :
  • 190756Z AUTO 22012KT 10SM CLR 25/24 A2985 RMK AO2 SLP093 T02510235 TSNO $

EXPIRED METARs :
  • 190656Z AUTO 22014KT 10SM CLR 26/23 A2987 RMK AO2 SLP100 T02600229 TSNO $
  • 190556Z AUTO 21019G25KT 10SM BKN190 27/22 A2986 RMK AO2 PK WND 21028/04 SLP097 T02740223 10340 20274 403610212 50005 TSNO $

TAF AMD TAF KIAB
Valid from the 19 at 03:00 until the 20 at 08:00 UTC


190355Z 1903/2008 20015G25KT 9999 SKC QNH2978INS
BECMG 1909/1910 20009KT 9999 FEW200 QNH2981INS
BECMG 1914/1915 20010G20KT 9999 FEW200 QNH2974INS WND 18009KT AFT 2000
BECMG 2005/2006 18009KT 9999 SKC WS020/21040KT QNH2970INS TX37/1921Z TN21/1911Z LAST NO AMDS AFT 1923 NEXT 2012
KZKC FIR / North America



MET'MAP, your aeronautical weather chart ! - Copyright ORBIFLY December 2007 - Disclaimer

ORBIFLY MET'MAP TEAM :

Programming & Development : Alexandra Zaïnal
Concept & original design : Baudouin d'Aumeries
Assistance for programming : Marc-Olivier Méhu
Technical & hardware support : Manuel Goepfert

Contact : metmap@orbifly.com




SOURCES & CREDITS :

   NOAA       Earth
Advisory